Autumn — V7QA6 — position and weather

sailwx.info

Track history (hours):
 
Tides and Currents Weather Stations Pressure Air Temp Water Temp Dewpoint Dewpoint Depression Visibility Wind Speed Wind Dir Waves Ship Positions

Autumn

Last reported at 2015-Apr-21 04:33 UTC. Time now 2015-Apr-21 05:04 UTC.
Position N 53°27' W 003°24'.

Length 129 m; draft 6.7 m.

Type: Tanker. MMSI: 538003323.

Date/timePositionNaut miles runAvg speedWind from/ knotsBaromVisibWave heightAir tempDewpointWater temp
2015-Apr-21 04:33N 53°27' W 003°24'0 0.0
2015-Apr-21 03:30N 53°27' W 003°24'0 0.0
2015-Apr-21 02:30N 53°27' W 003°24'0 0.0
2015-Apr-21 01:15N 53°27' W 003°24'0 0.2
2015-Apr-21 00:33N 53°27' W 003°24'0 0.1
2015-Apr-20 23:33N 53°27' W 003°24'0 0.0
2015-Apr-20 22:33N 53°27' W 003°24'0 0.0
2015-Apr-20 21:27N 53°27' W 003°24'0 0.0
2015-Apr-20 20:33N 53°27' W 003°24'0 0.1
2015-Apr-20 19:27N 53°27' W 003°24'0 0.1
2015-Apr-20 18:33N 53°27' W 003°24'0 0.1
2015-Apr-20 17:33N 53°27' W 003°24'0 0.0
2015-Apr-20 16:33N 53°27' W 003°24'0 0.0
2015-Apr-20 15:33N 53°27' W 003°24'0 0.0
2015-Apr-20 14:33N 53°27' W 003°24'0 0.0
2015-Apr-20 13:27N 53°27' W 003°24'0 0.0
2015-Apr-20 12:30N 53°27' W 003°24'0 0.1
2015-Apr-20 11:33N 53°27' W 003°24'0 0.0
2015-Apr-20 10:27N 53°27' W 003°24'0 0.0
2015-Apr-20 09:30N 53°27' W 003°24'0 0.0
2015-Apr-20 08:30N 53°27' W 003°24'0 0.0
2015-Apr-20 07:30N 53°27' W 003°24'0 0.1
2015-Apr-20 06:33N 53°27' W 003°24'0 0.0
2015-Apr-20 05:33N 53°27' W 003°24'0 0.0
2015-Apr-20 04:33N 53°27' W 003°24'0 0.0
2015-Apr-20 03:33N 53°27' W 003°24'0 0.0
2015-Apr-20 02:30N 53°27' W 003°24'0 0.0
2015-Apr-20 01:33N 53°27' W 003°24'0 0.0
2015-Apr-20 00:18N 53°27' W 003°24'0 0.1
2015-Apr-19 23:33N 53°27' W 003°24'1 0.9
2015-Apr-19 22:33N 53°28' W 003°26'1313.3
2015-Apr-19 21:33N 53°30' W 003°47'1615.9
2015-Apr-19 20:33N 53°30' W 004°14'17211.9
2015-Apr-19 06:05N 50°49' W 005°53'713.9
2015-Apr-19 05:33N 50°42' W 005°53'10210.9
2015-Apr-18 20:10N 49°58' W 003°29'812.4
2015-Apr-18 19:32N 49°59' W 003°16'1411.7
2015-Apr-18 18:22N 50°01' W 002°55'2412.3
2015-Apr-18 16:25N 50°07' W 002°19'1314.6
2015-Apr-18 15:33N 50°10' W 002°00'3316.7
2015-Apr-18 13:33N 50°20' W 001°10'1717.1
2015-Apr-18 12:33N 50°24' W 000°44'1515.3
2015-Apr-18 11:33N 50°28' W 000°21'1513.8
2015-Apr-18 10:27N 50°32' E 000°02'1112.3
2015-Apr-18 09:33N 50°35' E 000°19'1211.5
2015-Apr-18 08:33N 50°38' E 000°36'1212.0
2015-Apr-18 07:33N 50°45' E 000°51'1514.2
2015-Apr-18 06:32N 50°55' E 001°09'1616.1
2015-Apr-18 05:34N 51°05' E 001°28'1615.5
2015-Apr-18 04:34N 51°15' E 001°47'1313.0
2015-Apr-18 03:33N 51°25' E 002°00'1313.0
2015-Apr-18 02:33N 51°21' E 002°20'1212.4
2015-Apr-18 01:34N 51°23' E 002°40'1111.4
2015-Apr-18 00:33N 51°23' E 002°58'1111.4
2015-Apr-17 23:33N 51°25' E 003°17'1010.5
2015-Apr-17 22:34N 51°26' E 003°33'9 9.2
2015-Apr-17 21:33N 51°22' E 003°46'1010.0
2015-Apr-17 20:33N 51°26' E 004°01'9 9.4
2015-Apr-17 19:34N 51°22' E 004°14'6 6.2
2015-Apr-17 18:34N 51°17' E 004°20'0 0.2
2015-Apr-17 17:34N 51°16' E 004°20'1 0.8
2015-Apr-17 16:31N 51°16' E 004°21'0 0.0
2015-Apr-17 15:31N 51°16' E 004°21'0 0.0
2015-Apr-17 14:31N 51°16' E 004°21'0 0.0
2015-Apr-17 13:31N 51°16' E 004°21'0 0.0
2015-Apr-17 12:31N 51°16' E 004°21'0 0.0
2015-Apr-17 11:31N 51°16' E 004°21'0 0.0
2015-Apr-17 10:31N 51°16' E 004°21'0 0.0
2015-Apr-17 09:31N 51°16' E 004°21'0 0.0
2015-Apr-17 08:28N 51°16' E 004°21'0 0.0
2015-Apr-17 07:31N 51°16' E 004°21'0 0.0
2015-Apr-17 06:31N 51°16' E 004°21'0 0.0
2015-Apr-17 05:31N 51°16' E 004°21'0 0.0
2015-Apr-17 04:31N 51°16' E 004°21'0 0.0
2015-Apr-17 03:31N 51°16' E 004°21'0 0.0
2015-Apr-17 02:31N 51°16' E 004°21'0 0.0
2015-Apr-17 01:25N 51°16' E 004°21'0 0.0
2015-Apr-17 00:31N 51°16' E 004°21'0 0.0
2015-Apr-16 23:31N 51°16' E 004°21'0 0.0
2015-Apr-16 22:31N 51°16' E 004°21'0 0.0
2015-Apr-16 21:25N 51°16' E 004°21'0 0.0
2015-Apr-16 20:31N 51°16' E 004°21'0 0.0
2015-Apr-16 19:28N 51°16' E 004°21'0 0.0
2015-Apr-16 18:31N 51°16' E 004°21'0 0.0
2015-Apr-16 17:31N 51°16' E 004°21'0 0.0
2015-Apr-16 16:31N 51°16' E 004°21'0 0.0
2015-Apr-16 15:31N 51°16' E 004°21'0 0.0
2015-Apr-16 14:31N 51°16' E 004°21'0 0.0
2015-Apr-16 13:31N 51°16' E 004°21'0 0.0
2015-Apr-16 12:31N 51°16' E 004°21'0 0.0
2015-Apr-16 11:31N 51°16' E 004°21'0 0.0
2015-Apr-16 10:31N 51°16' E 004°21'0 0.0
2015-Apr-16 09:31N 51°16' E 004°21'0 0.0
2015-Apr-16 08:31N 51°16' E 004°21'0 0.0
2015-Apr-16 07:31N 51°16' E 004°21'0 0.0
2015-Apr-16 06:28N 51°16' E 004°21'0 0.0
2015-Apr-16 05:31N 51°16' E 004°21'0 0.0
2015-Apr-16 04:31N 51°16' E 004°21'0 0.0
2015-Apr-16 03:31N 51°16' E 004°21'0 0.0
2015-Apr-16 02:28N 51°16' E 004°21'0 0.0
2015-Apr-16 01:31N 51°16' E 004°21'1 1.4
2015-Apr-16 00:33N 51°17' E 004°20'4 4.3
2015-Apr-15 23:34N 51°21' E 004°17'0 0.0
2015-Apr-15 22:34N 51°21' E 004°17'1 1.5
2015-Apr-15 21:34N 51°21' E 004°15'7 7.0
2015-Apr-15 20:34N 51°22' E 004°04'6 6.2
2015-Apr-15 19:33N 51°21' E 003°54'1212.4
2015-Apr-15 18:33N 51°26' E 003°35'1111.2
2015-Apr-15 17:33N 51°35' E 003°24'1212.2
2015-Apr-15 16:33N 51°45' E 003°14'6 5.9
2015-Apr-15 15:30N 51°49' E 003°22'0 0.1
2015-Apr-15 14:33N 51°49' E 003°22'0 0.0
2015-Apr-15 13:29N 51°49' E 003°22'0 0.0
2015-Apr-15 12:33N 51°49' E 003°22'0 0.0
2015-Apr-15 11:26N 51°49' E 003°22'0 0.0
2015-Apr-15 10:33N 51°49' E 003°22'0 0.0
2015-Apr-15 09:33N 51°49' E 003°22'0 0.0
2015-Apr-15 08:30N 51°49' E 003°22'0 0.1
2015-Apr-15 07:25N 51°49' E 003°22'0 0.1
2015-Apr-15 06:18N 51°49' E 003°22'0 0.0
2015-Apr-15 05:33N 51°49' E 003°22'0 0.0
2015-Apr-15 04:21N 51°49' E 003°22'0 0.1
2015-Apr-15 03:30N 51°49' E 003°22'0 0.1
2015-Apr-15 02:30N 51°49' E 003°22'0 0.0
2015-Apr-15 01:30N 51°49' E 003°22'0 0.0
2015-Apr-15 00:33N 51°49' E 003°22'0 0.0
2015-Apr-14 23:33N 51°49' E 003°22'0 0.0
2015-Apr-14 22:30N 51°49' E 003°22'0 0.0
2015-Apr-14 20:30N 51°49' E 003°22'0 0.0
2015-Apr-14 19:27N 51°49' E 003°22'0 0.1
2015-Apr-14 18:30N 51°49' E 003°22'3 3.2
2015-Apr-14 17:33N 51°46' E 003°18'10 9.8
2015-Apr-14 16:33N 51°37' E 003°22'1111.3
2015-Apr-14 15:33N 51°27' E 003°31'9 9.1
2015-Apr-14 14:34N 51°23' E 003°44'1111.3
2015-Apr-14 13:34N 51°26' E 004°01'1010.1
2015-Apr-14 12:33N 51°21' E 004°15'1 1.0
2015-Apr-14 11:33N 51°21' E 004°17'1 0.5
2015-Apr-14 10:33N 51°21' E 004°18'4 2.8
2015-Apr-14 09:16N 51°18' E 004°20'0 0.0
2015-Apr-14 08:28N 51°18' E 004°20'0 0.0
2015-Apr-14 07:28N 51°18' E 004°20'0 0.0
2015-Apr-14 06:19N 51°18' E 004°20'0 0.0
2015-Apr-14 05:31N 51°18' E 004°20'0 0.0
2015-Apr-14 04:16N 51°18' E 004°20'0 0.0
2015-Apr-14 03:28N 51°18' E 004°20'0 0.0
2015-Apr-14 02:16N 51°18' E 004°20'0 0.0
2015-Apr-14 01:28N 51°18' E 004°20'0 0.0
2015-Apr-14 00:28N 51°18' E 004°20'0 0.0
2015-Apr-13 23:28N 51°18' E 004°20'0 0.0
2015-Apr-13 22:22N 51°18' E 004°20'0 0.0
2015-Apr-13 21:28N 51°18' E 004°20'0 0.0
2015-Apr-13 20:28N 51°18' E 004°20'0 0.0
2015-Apr-13 19:28N 51°18' E 004°20'0 0.0
2015-Apr-13 18:25N 51°18' E 004°20'0 0.0
2015-Apr-13 17:19N 51°18' E 004°20'0 0.0
2015-Apr-13 16:31N 51°18' E 004°20'0 0.0
2015-Apr-13 15:25N 51°18' E 004°20'0 0.0
2015-Apr-13 14:25N 51°18' E 004°20'0 0.0
2015-Apr-13 13:28N 51°18' E 004°20'0 0.0
2015-Apr-13 12:31N 51°18' E 004°20'0 0.0
2015-Apr-13 11:31N 51°18' E 004°20'0 0.0
2015-Apr-13 10:25N 51°18' E 004°20'0 0.0
2015-Apr-13 09:25N 51°18' E 004°20'0 0.0
2015-Apr-13 08:31N 51°18' E 004°20'0 0.0
2015-Apr-13 07:22N 51°18' E 004°20'0 0.0
2015-Apr-13 06:31N 51°18' E 004°20'0 0.0
2015-Apr-13 05:31N 51°18' E 004°20'0 0.0
2015-Apr-13 04:31N 51°18' E 004°20'0 0.0
2015-Apr-13 03:22N 51°18' E 004°20'0 0.0
2015-Apr-13 02:31N 51°18' E 004°20'0 0.0
2015-Apr-13 01:07N 51°18' E 004°20'0 0.0
2015-Apr-13 00:25N 51°18' E 004°20'0 0.0
2015-Apr-12 23:10N 51°18' E 004°20'0 0.3
2015-Apr-12 22:33N 51°18' E 004°20'1 1.0
2015-Apr-12 21:34N 51°17' E 004°20'5 4.8
2015-Apr-12 20:34N 51°21' E 004°16'9 9.2
2015-Apr-12 19:34N 51°24' E 004°02'10 9.7
2015-Apr-12 18:34N 51°21' E 003°47'1010.2
2015-Apr-12 17:33N 51°25' E 003°32'1212.1
2015-Apr-12 16:33N 51°24' E 003°13'1312.9
2015-Apr-12 15:33N 51°25' E 002°52'7 7.4
2015-Apr-12 14:33N 51°25' E 002°40'0 0.2
2015-Apr-12 13:31N 51°25' E 002°40'0 0.0
2015-Apr-12 12:28N 51°25' E 002°40'0 0.1
2015-Apr-12 11:31N 51°25' E 002°40'0 0.1
2015-Apr-12 10:31N 51°25' E 002°40'0 0.0
2015-Apr-12 09:31N 51°25' E 002°40'0 0.0
2015-Apr-12 08:31N 51°25' E 002°40'0 0.0
2015-Apr-12 07:28N 51°25' E 002°40'0 0.0
2015-Apr-12 06:31N 51°25' E 002°40'0 0.0
2015-Apr-12 05:22N 51°25' E 002°40'0 0.0
2015-Apr-12 04:31N 51°25' E 002°40'0 0.0
2015-Apr-12 03:25N 51°25' E 002°40'0 0.1
2015-Apr-12 02:31N 51°25' E 002°40'0 0.0
2015-Apr-12 01:22N 51°25' E 002°40'0 0.0
2015-Apr-12 00:31N 51°25' E 002°40'0 0.0
2015-Apr-11 23:31N 51°25' E 002°40'0 0.1
2015-Apr-11 22:31N 51°25' E 002°40'0 0.1
2015-Apr-11 21:31N 51°25' E 002°40'0 0.0
2015-Apr-11 20:31N 51°25' E 002°40'0 0.0
2015-Apr-11 19:31N 51°25' E 002°40'0 0.0
2015-Apr-11 18:31N 51°25' E 002°40'0 0.0
2015-Apr-11 17:31N 51°25' E 002°40'0 0.0
2015-Apr-11 16:31N 51°25' E 002°40'0 0.0
2015-Apr-11 15:31N 51°25' E 002°40'0 0.0
2015-Apr-11 14:31N 51°25' E 002°40'0 0.1
2015-Apr-11 13:31N 51°25' E 002°40'0 0.1
2015-Apr-11 12:31N 51°25' E 002°40'0 0.0
2015-Apr-11 11:22N 51°25' E 002°40'0 0.1
2015-Apr-11 10:31N 51°25' E 002°40'0 0.0
2015-Apr-11 09:31N 51°25' E 002°40'0 0.0
2015-Apr-11 08:32N 51°25' E 002°40'0 0.0
2015-Apr-11 07:31N 51°25' E 002°40'0 0.0
2015-Apr-11 06:31N 51°25' E 002°40'0 0.0
2015-Apr-11 05:31N 51°25' E 002°40'  
Track history (hours):
 
Tides and Currents Weather Stations Pressure Air Temp Water Temp Dewpoint Dewpoint Depression Visibility Wind Speed Wind Dir Waves Ship Positions

Autumn

Last reported at 2015-Apr-21 04:33 UTC. Time now 2015-Apr-21 05:04 UTC.
Position N 53°27' W 003°24'.

Length 129 m; draft 6.7 m.

Type: Tanker. MMSI: 538003323.

Date/timePositionNaut miles runAvg speedWind from/ knotsBaromVisibWave heightAir tempDewpointWater temp
2015-Apr-21 04:33N 53°27' W 003°24'0 0.0
2015-Apr-21 03:30N 53°27' W 003°24'0 0.0
2015-Apr-21 02:30N 53°27' W 003°24'0 0.0
2015-Apr-21 01:15N 53°27' W 003°24'0 0.2
2015-Apr-21 00:33N 53°27' W 003°24'0 0.1
2015-Apr-20 23:33N 53°27' W 003°24'0 0.0
2015-Apr-20 22:33N 53°27' W 003°24'0 0.0
2015-Apr-20 21:27N 53°27' W 003°24'0 0.0
2015-Apr-20 20:33N 53°27' W 003°24'0 0.1
2015-Apr-20 19:27N 53°27' W 003°24'0 0.1
2015-Apr-20 18:33N 53°27' W 003°24'0 0.1
2015-Apr-20 17:33N 53°27' W 003°24'0 0.0
2015-Apr-20 16:33N 53°27' W 003°24'0 0.0
2015-Apr-20 15:33N 53°27' W 003°24'0 0.0
2015-Apr-20 14:33N 53°27' W 003°24'0 0.0
2015-Apr-20 13:27N 53°27' W 003°24'0 0.0
2015-Apr-20 12:30N 53°27' W 003°24'0 0.1
2015-Apr-20 11:33N 53°27' W 003°24'0 0.0
2015-Apr-20 10:27N 53°27' W 003°24'0 0.0
2015-Apr-20 09:30N 53°27' W 003°24'0 0.0
2015-Apr-20 08:30N 53°27' W 003°24'0 0.0
2015-Apr-20 07:30N 53°27' W 003°24'0 0.1
2015-Apr-20 06:33N 53°27' W 003°24'0 0.0
2015-Apr-20 05:33N 53°27' W 003°24'0 0.0
2015-Apr-20 04:33N 53°27' W 003°24'0 0.0
2015-Apr-20 03:33N 53°27' W 003°24'0 0.0
2015-Apr-20 02:30N 53°27' W 003°24'0 0.0
2015-Apr-20 01:33N 53°27' W 003°24'0 0.0
2015-Apr-20 00:18N 53°27' W 003°24'0 0.1
2015-Apr-19 23:33N 53°27' W 003°24'1 0.9
2015-Apr-19 22:33N 53°28' W 003°26'1313.3
2015-Apr-19 21:33N 53°30' W 003°47'1615.9
2015-Apr-19 20:33N 53°30' W 004°14'17211.9
2015-Apr-19 06:05N 50°49' W 005°53'713.9
2015-Apr-19 05:33N 50°42' W 005°53'10210.9
2015-Apr-18 20:10N 49°58' W 003°29'812.4
2015-Apr-18 19:32N 49°59' W 003°16'1411.7
2015-Apr-18 18:22N 50°01' W 002°55'2412.3
2015-Apr-18 16:25N 50°07' W 002°19'1314.6
2015-Apr-18 15:33N 50°10' W 002°00'3316.7
2015-Apr-18 13:33N 50°20' W 001°10'1717.1
2015-Apr-18 12:33N 50°24' W 000°44'1515.3
2015-Apr-18 11:33N 50°28' W 000°21'1513.8
2015-Apr-18 10:27N 50°32' E 000°02'1112.3
2015-Apr-18 09:33N 50°35' E 000°19'1211.5
2015-Apr-18 08:33N 50°38' E 000°36'1212.0
2015-Apr-18 07:33N 50°45' E 000°51'1514.2
2015-Apr-18 06:32N 50°55' E 001°09'1616.1
2015-Apr-18 05:34N 51°05' E 001°28'1615.5
2015-Apr-18 04:34N 51°15' E 001°47'1313.0
2015-Apr-18 03:33N 51°25' E 002°00'1313.0
2015-Apr-18 02:33N 51°21' E 002°20'1212.4
2015-Apr-18 01:34N 51°23' E 002°40'1111.4
2015-Apr-18 00:33N 51°23' E 002°58'1111.4
2015-Apr-17 23:33N 51°25' E 003°17'1010.5
2015-Apr-17 22:34N 51°26' E 003°33'9 9.2
2015-Apr-17 21:33N 51°22' E 003°46'1010.0
2015-Apr-17 20:33N 51°26' E 004°01'9 9.4
2015-Apr-17 19:34N 51°22' E 004°14'6 6.2
2015-Apr-17 18:34N 51°17' E 004°20'0 0.2
2015-Apr-17 17:34N 51°16' E 004°20'1 0.8
2015-Apr-17 16:31N 51°16' E 004°21'0 0.0
2015-Apr-17 15:31N 51°16' E 004°21'0 0.0
2015-Apr-17 14:31N 51°16' E 004°21'0 0.0
2015-Apr-17 13:31N 51°16' E 004°21'0 0.0
2015-Apr-17 12:31N 51°16' E 004°21'0 0.0
2015-Apr-17 11:31N 51°16' E 004°21'0 0.0
2015-Apr-17 10:31N 51°16' E 004°21'0 0.0
2015-Apr-17 09:31N 51°16' E 004°21'0 0.0
2015-Apr-17 08:28N 51°16' E 004°21'0 0.0
2015-Apr-17 07:31N 51°16' E 004°21'0 0.0
2015-Apr-17 06:31N 51°16' E 004°21'0 0.0
2015-Apr-17 05:31N 51°16' E 004°21'0 0.0
2015-Apr-17 04:31N 51°16' E 004°21'0 0.0
2015-Apr-17 03:31N 51°16' E 004°21'0 0.0
2015-Apr-17 02:31N 51°16' E 004°21'0 0.0
2015-Apr-17 01:25N 51°16' E 004°21'0 0.0
2015-Apr-17 00:31N 51°16' E 004°21'0 0.0
2015-Apr-16 23:31N 51°16' E 004°21'0 0.0
2015-Apr-16 22:31N 51°16' E 004°21'0 0.0
2015-Apr-16 21:25N 51°16' E 004°21'0 0.0
2015-Apr-16 20:31N 51°16' E 004°21'0 0.0
2015-Apr-16 19:28N 51°16' E 004°21'0 0.0
2015-Apr-16 18:31N 51°16' E 004°21'0 0.0
2015-Apr-16 17:31N 51°16' E 004°21'0 0.0
2015-Apr-16 16:31N 51°16' E 004°21'0 0.0
2015-Apr-16 15:31N 51°16' E 004°21'0 0.0
2015-Apr-16 14:31N 51°16' E 004°21'0 0.0
2015-Apr-16 13:31N 51°16' E 004°21'0 0.0
2015-Apr-16 12:31N 51°16' E 004°21'0 0.0
2015-Apr-16 11:31N 51°16' E 004°21'0 0.0
2015-Apr-16 10:31N 51°16' E 004°21'0 0.0
2015-Apr-16 09:31N 51°16' E 004°21'0 0.0
2015-Apr-16 08:31N 51°16' E 004°21'0 0.0
2015-Apr-16 07:31N 51°16' E 004°21'0 0.0
2015-Apr-16 06:28N 51°16' E 004°21'0 0.0
2015-Apr-16 05:31N 51°16' E 004°21'0 0.0
2015-Apr-16 04:31N 51°16' E 004°21'0 0.0
2015-Apr-16 03:31N 51°16' E 004°21'0 0.0
2015-Apr-16 02:28N 51°16' E 004°21'0 0.0
2015-Apr-16 01:31N 51°16' E 004°21'1 1.4
2015-Apr-16 00:33N 51°17' E 004°20'4 4.3
2015-Apr-15 23:34N 51°21' E 004°17'0 0.0
2015-Apr-15 22:34N 51°21' E 004°17'1 1.5
2015-Apr-15 21:34N 51°21' E 004°15'7 7.0
2015-Apr-15 20:34N 51°22' E 004°04'6 6.2
2015-Apr-15 19:33N 51°21' E 003°54'1212.4
2015-Apr-15 18:33N 51°26' E 003°35'1111.2
2015-Apr-15 17:33N 51°35' E 003°24'1212.2
2015-Apr-15 16:33N 51°45' E 003°14'6 5.9
2015-Apr-15 15:30N 51°49' E 003°22'0 0.1
2015-Apr-15 14:33N 51°49' E 003°22'0 0.0
2015-Apr-15 13:29N 51°49' E 003°22'0 0.0
2015-Apr-15 12:33N 51°49' E 003°22'0 0.0
2015-Apr-15 11:26N 51°49' E 003°22'0 0.0
2015-Apr-15 10:33N 51°49' E 003°22'0 0.0
2015-Apr-15 09:33N 51°49' E 003°22'0 0.0
2015-Apr-15 08:30N 51°49' E 003°22'0 0.1
2015-Apr-15 07:25N 51°49' E 003°22'0 0.1
2015-Apr-15 06:18N 51°49' E 003°22'0 0.0
2015-Apr-15 05:33N 51°49' E 003°22'0 0.0
2015-Apr-15 04:21N 51°49' E 003°22'0 0.1
2015-Apr-15 03:30N 51°49' E 003°22'0 0.1
2015-Apr-15 02:30N 51°49' E 003°22'0 0.0
2015-Apr-15 01:30N 51°49' E 003°22'0 0.0
2015-Apr-15 00:33N 51°49' E 003°22'0 0.0
2015-Apr-14 23:33N 51°49' E 003°22'0 0.0
2015-Apr-14 22:30N 51°49' E 003°22'0 0.0
2015-Apr-14 20:30N 51°49' E 003°22'0 0.0
2015-Apr-14 19:27N 51°49' E 003°22'0 0.1
2015-Apr-14 18:30N 51°49' E 003°22'3 3.2
2015-Apr-14 17:33N 51°46' E 003°18'10 9.8
2015-Apr-14 16:33N 51°37' E 003°22'1111.3
2015-Apr-14 15:33N 51°27' E 003°31'9 9.1
2015-Apr-14 14:34N 51°23' E 003°44'1111.3
2015-Apr-14 13:34N 51°26' E 004°01'1010.1
2015-Apr-14 12:33N 51°21' E 004°15'1 1.0
2015-Apr-14 11:33N 51°21' E 004°17'1 0.5
2015-Apr-14 10:33N 51°21' E 004°18'4 2.8
2015-Apr-14 09:16N 51°18' E 004°20'0 0.0
2015-Apr-14 08:28N 51°18' E 004°20'0 0.0
2015-Apr-14 07:28N 51°18' E 004°20'0 0.0
2015-Apr-14 06:19N 51°18' E 004°20'0 0.0
2015-Apr-14 05:31N 51°18' E 004°20'0 0.0
2015-Apr-14 04:16N 51°18' E 004°20'0 0.0
2015-Apr-14 03:28N 51°18' E 004°20'0 0.0
2015-Apr-14 02:16N 51°18' E 004°20'0 0.0
2015-Apr-14 01:28N 51°18' E 004°20'0 0.0
2015-Apr-14 00:28N 51°18' E 004°20'0 0.0
2015-Apr-13 23:28N 51°18' E 004°20'0 0.0
2015-Apr-13 22:22N 51°18' E 004°20'0 0.0
2015-Apr-13 21:28N 51°18' E 004°20'0 0.0
2015-Apr-13 20:28N 51°18' E 004°20'0 0.0
2015-Apr-13 19:28N 51°18' E 004°20'0 0.0
2015-Apr-13 18:25N 51°18' E 004°20'0 0.0
2015-Apr-13 17:19N 51°18' E 004°20'0 0.0
2015-Apr-13 16:31N 51°18' E 004°20'0 0.0
2015-Apr-13 15:25N 51°18' E 004°20'0 0.0
2015-Apr-13 14:25N 51°18' E 004°20'0 0.0
2015-Apr-13 13:28N 51°18' E 004°20'0 0.0
2015-Apr-13 12:31N 51°18' E 004°20'0 0.0
2015-Apr-13 11:31N 51°18' E 004°20'0 0.0
2015-Apr-13 10:25N 51°18' E 004°20'0 0.0
2015-Apr-13 09:25N 51°18' E 004°20'0 0.0
2015-Apr-13 08:31N 51°18' E 004°20'0 0.0
2015-Apr-13 07:22N 51°18' E 004°20'0 0.0
2015-Apr-13 06:31N 51°18' E 004°20'0 0.0
2015-Apr-13 05:31N 51°18' E 004°20'0 0.0
2015-Apr-13 04:31N 51°18' E 004°20'0 0.0
2015-Apr-13 03:22N 51°18' E 004°20'0 0.0
2015-Apr-13 02:31N 51°18' E 004°20'0 0.0
2015-Apr-13 01:07N 51°18' E 004°20'0 0.0
2015-Apr-13 00:25N 51°18' E 004°20'0 0.0
2015-Apr-12 23:10N 51°18' E 004°20'0 0.3
2015-Apr-12 22:33N 51°18' E 004°20'1 1.0
2015-Apr-12 21:34N 51°17' E 004°20'5 4.8
2015-Apr-12 20:34N 51°21' E 004°16'9 9.2
2015-Apr-12 19:34N 51°24' E 004°02'10 9.7
2015-Apr-12 18:34N 51°21' E 003°47'1010.2
2015-Apr-12 17:33N 51°25' E 003°32'1212.1
2015-Apr-12 16:33N 51°24' E 003°13'1312.9
2015-Apr-12 15:33N 51°25' E 002°52'7 7.4
2015-Apr-12 14:33N 51°25' E 002°40'0 0.2
2015-Apr-12 13:31N 51°25' E 002°40'0 0.0
2015-Apr-12 12:28N 51°25' E 002°40'0 0.1
2015-Apr-12 11:31N 51°25' E 002°40'0 0.1
2015-Apr-12 10:31N 51°25' E 002°40'0 0.0
2015-Apr-12 09:31N 51°25' E 002°40'0 0.0
2015-Apr-12 08:31N 51°25' E 002°40'0 0.0
2015-Apr-12 07:28N 51°25' E 002°40'0 0.0
2015-Apr-12 06:31N 51°25' E 002°40'0 0.0
2015-Apr-12 05:22N 51°25' E 002°40'0 0.0
2015-Apr-12 04:31N 51°25' E 002°40'0 0.0
2015-Apr-12 03:25N 51°25' E 002°40'0 0.1
2015-Apr-12 02:31N 51°25' E 002°40'0 0.0
2015-Apr-12 01:22N 51°25' E 002°40'0 0.0
2015-Apr-12 00:31N 51°25' E 002°40'0 0.0
2015-Apr-11 23:31N 51°25' E 002°40'0 0.1
2015-Apr-11 22:31N 51°25' E 002°40'0 0.1
2015-Apr-11 21:31N 51°25' E 002°40'0 0.0
2015-Apr-11 20:31N 51°25' E 002°40'0 0.0
2015-Apr-11 19:31N 51°25' E 002°40'0 0.0
2015-Apr-11 18:31N 51°25' E 002°40'0 0.0
2015-Apr-11 17:31N 51°25' E 002°40'0 0.0
2015-Apr-11 16:31N 51°25' E 002°40'0 0.0
2015-Apr-11 15:31N 51°25' E 002°40'0 0.0
2015-Apr-11 14:31N 51°25' E 002°40'0 0.1
2015-Apr-11 13:31N 51°25' E 002°40'0 0.1
2015-Apr-11 12:31N 51°25' E 002°40'0 0.0
2015-Apr-11 11:22N 51°25' E 002°40'0 0.1
2015-Apr-11 10:31N 51°25' E 002°40'0 0.0
2015-Apr-11 09:31N 51°25' E 002°40'0 0.0
2015-Apr-11 08:32N 51°25' E 002°40'0 0.0
2015-Apr-11 07:31N 51°25' E 002°40'0 0.0
2015-Apr-11 06:31N 51°25' E 002°40'0 0.0
2015-Apr-11 05:31N 51°25' E 002°40'  

Dump ship's entire track history